sensor_id;sensor_type;location;lat;lon;timestamp;temperature;humidity
18950;DHT22;9608;49.288;8.130;2023-07-24T00:01:56;19.50;99.90
18950;DHT22;9608;49.288;8.130;2023-07-24T00:04:22;19.50;99.90
18950;DHT22;9608;49.288;8.130;2023-07-24T00:06:50;19.30;99.90
18950;DHT22;9608;49.288;8.130;2023-07-24T00:09:17;19.20;99.90
18950;DHT22;9608;49.288;8.130;2023-07-24T00:11:44;19.30;99.90
18950;DHT22;9608;49.288;8.130;2023-07-24T00:14:11;19.40;99.90
18950;DHT22;9608;49.288;8.130;2023-07-24T00:16:37;19.20;99.90
18950;DHT22;9608;49.288;8.130;2023-07-24T00:19:04;19.30;99.90
18950;DHT22;9608;49.288;8.130;2023-07-24T00:21:31;19.40;99.90
18950;DHT22;9608;49.288;8.130;2023-07-24T00:23:59;19.40;99.90
18950;DHT22;9608;49.288;8.130;2023-07-24T00:26:25;19.40;99.90
18950;DHT22;9608;49.288;8.130;2023-07-24T00:28:52;19.30;99.90
18950;DHT22;9608;49.288;8.130;2023-07-24T00:31:19;19.20;99.90
18950;DHT22;9608;49.288;8.130;2023-07-24T00:33:45;19.00;99.90
18950;DHT22;9608;49.288;8.130;2023-07-24T00:36:12;19.10;99.90
18950;DHT22;9608;49.288;8.130;2023-07-24T00:38:39;19.20;99.90
18950;DHT22;9608;49.288;8.130;2023-07-24T00:41:07;19.20;99.90
18950;DHT22;9608;49.288;8.130;2023-07-24T00:43:34;19.20;99.90
18950;DHT22;9608;49.288;8.130;2023-07-24T00:46:02;19.10;99.90
18950;DHT22;9608;49.288;8.130;2023-07-24T00:48:29;19.00;99.90
18950;DHT22;9608;49.288;8.130;2023-07-24T00:50:56;19.00;99.90
18950;DHT22;9608;49.288;8.130;2023-07-24T00:53:23;19.10;99.90
18950;DHT22;9608;49.288;8.130;2023-07-24T00:55:50;19.10;99.90
18950;DHT22;9608;49.288;8.130;2023-07-24T00:58:19;19.20;99.90
18950;DHT22;9608;49.288;8.130;2023-07-24T01:00:46;19.30;99.90
18950;DHT22;9608;49.288;8.130;2023-07-24T01:03:12;19.50;99.90
18950;DHT22;9608;49.288;8.130;2023-07-24T01:05:39;19.40;99.90
18950;DHT22;9608;49.288;8.130;2023-07-24T01:08:06;19.30;99.90
18950;DHT22;9608;49.288;8.130;2023-07-24T01:10:33;19.30;99.90
18950;DHT22;9608;49.288;8.130;2023-07-24T01:13:05;19.30;99.90
18950;DHT22;9608;49.288;8.130;2023-07-24T01:15:36;19.20;99.90
18950;DHT22;9608;49.288;8.130;2023-07-24T01:18:09;19.20;99.90
18950;DHT22;9608;49.288;8.130;2023-07-24T01:20:37;19.20;99.90
18950;DHT22;9608;49.288;8.130;2023-07-24T01:23:14;19.30;99.90
18950;DHT22;9608;49.288;8.130;2023-07-24T01:25:53;19.30;99.90
18950;DHT22;9608;49.288;8.130;2023-07-24T01:28:20;19.30;99.90
18950;DHT22;9608;49.288;8.130;2023-07-24T01:30:47;19.30;99.90
18950;DHT22;9608;49.288;8.130;2023-07-24T01:33:14;19.20;99.90
18950;DHT22;9608;49.288;8.130;2023-07-24T01:35:42;19.20;99.90
18950;DHT22;9608;49.288;8.130;2023-07-24T01:38:10;19.40;99.90
18950;DHT22;9608;49.288;8.130;2023-07-24T01:40:38;19.60;99.90
18950;DHT22;9608;49.288;8.130;2023-07-24T01:43:07;19.60;99.90
18950;DHT22;9608;49.288;8.130;2023-07-24T01:45:34;19.50;99.90
18950;DHT22;9608;49.288;8.130;2023-07-24T01:48:03;19.40;99.90
18950;DHT22;9608;49.288;8.130;2023-07-24T01:50:30;19.40;99.90
18950;DHT22;9608;49.288;8.130;2023-07-24T01:52:56;19.30;99.90
18950;DHT22;9608;49.288;8.130;2023-07-24T01:55:23;19.40;99.90
18950;DHT22;9608;49.288;8.130;2023-07-24T01:57:50;19.60;99.90
18950;DHT22;9608;49.288;8.130;2023-07-24T02:00:18;19.60;99.90
18950;DHT22;9608;49.288;8.130;2023-07-24T02:02:45;19.50;99.90
18950;DHT22;9608;49.288;8.130;2023-07-24T02:05:12;19.50;99.90
18950;DHT22;9608;49.288;8.130;2023-07-24T02:07:38;19.40;99.90
18950;DHT22;9608;49.288;8.130;2023-07-24T02:10:06;19.50;99.90
18950;DHT22;9608;49.288;8.130;2023-07-24T02:12:33;19.40;99.90
18950;DHT22;9608;49.288;8.130;2023-07-24T02:14:59;19.20;99.90
18950;DHT22;9608;49.288;8.130;2023-07-24T02:17:27;19.00;99.90
18950;DHT22;9608;49.288;8.130;2023-07-24T02:19:54;19.10;99.90
18950;DHT22;9608;49.288;8.130;2023-07-24T02:22:21;19.30;99.90
18950;DHT22;9608;49.288;8.130;2023-07-24T02:24:47;19.30;99.90
18950;DHT22;9608;49.288;8.130;2023-07-24T02:27:25;19.20;99.90
18950;DHT22;9608;49.288;8.130;2023-07-24T02:29:52;19.20;99.90
18950;DHT22;9608;49.288;8.130;2023-07-24T02:32:18;19.20;99.90
18950;DHT22;9608;49.288;8.130;2023-07-24T02:34:48;19.20;99.90
18950;DHT22;9608;49.288;8.130;2023-07-24T02:37:15;19.20;99.90
18950;DHT22;9608;49.288;8.130;2023-07-24T02:39:42;19.00;99.90
18950;DHT22;9608;49.288;8.130;2023-07-24T02:42:08;18.90;99.90
18950;DHT22;9608;49.288;8.130;2023-07-24T02:44:35;18.90;99.90
18950;DHT22;9608;49.288;8.130;2023-07-24T02:47:02;18.80;99.90
18950;DHT22;9608;49.288;8.130;2023-07-24T02:49:29;18.80;99.90
18950;DHT22;9608;49.288;8.130;2023-07-24T02:51:57;18.90;99.90
18950;DHT22;9608;49.288;8.130;2023-07-24T02:54:25;18.80;99.90
18950;DHT22;9608;49.288;8.130;2023-07-24T02:56:52;18.80;99.90
18950;DHT22;9608;49.288;8.130;2023-07-24T02:59:19;18.80;99.90
18950;DHT22;9608;49.288;8.130;2023-07-24T03:01:45;18.80;99.90
18950;DHT22;9608;49.288;8.130;2023-07-24T03:04:12;19.00;99.90
18950;DHT22;9608;49.288;8.130;2023-07-24T03:06:39;19.10;99.90
18950;DHT22;9608;49.288;8.130;2023-07-24T03:09:07;19.00;99.90
18950;DHT22;9608;49.288;8.130;2023-07-24T03:11:33;19.00;99.90
18950;DHT22;9608;49.288;8.130;2023-07-24T03:14:00;19.00;99.90
18950;DHT22;9608;49.288;8.130;2023-07-24T03:16:27;19.10;99.90
18950;DHT22;9608;49.288;8.130;2023-07-24T03:18:53;19.20;99.90
18950;DHT22;9608;49.288;8.130;2023-07-24T03:21:21;19.20;99.90
18950;DHT22;9608;49.288;8.130;2023-07-24T03:23:47;19.20;99.90
18950;DHT22;9608;49.288;8.130;2023-07-24T03:26:15;19.20;99.90
18950;DHT22;9608;49.288;8.130;2023-07-24T03:28:42;19.30;99.90
18950;DHT22;9608;49.288;8.130;2023-07-24T03:31:09;19.30;99.90
18950;DHT22;9608;49.288;8.130;2023-07-24T03:33:35;19.40;99.90
18950;DHT22;9608;49.288;8.130;2023-07-24T03:36:02;19.40;99.90
18950;DHT22;9608;49.288;8.130;2023-07-24T03:38:30;19.20;99.90
18950;DHT22;9608;49.288;8.130;2023-07-24T03:40:56;19.10;99.90
18950;DHT22;9608;49.288;8.130;2023-07-24T03:43:24;19.00;99.90
18950;DHT22;9608;49.288;8.130;2023-07-24T03:45:51;19.00;99.90
18950;DHT22;9608;49.288;8.130;2023-07-24T03:48:18;19.00;99.90
18950;DHT22;9608;49.288;8.130;2023-07-24T03:50:44;19.00;99.90
18950;DHT22;9608;49.288;8.130;2023-07-24T03:53:11;18.90;99.90
18950;DHT22;9608;49.288;8.130;2023-07-24T03:55:38;18.90;99.90
18950;DHT22;9608;49.288;8.130;2023-07-24T03:58:04;18.90;99.90
18950;DHT22;9608;49.288;8.130;2023-07-24T04:00:32;19.10;99.90
18950;DHT22;9608;49.288;8.130;2023-07-24T04:02:59;19.10;99.90
18950;DHT22;9608;49.288;8.130;2023-07-24T04:05:26;18.90;99.90
18950;DHT22;9608;49.288;8.130;2023-07-24T04:07:53;19.00;99.90
18950;DHT22;9608;49.288;8.130;2023-07-24T04:10:20;18.90;99.90
18950;DHT22;9608;49.288;8.130;2023-07-24T04:12:46;18.90;99.90
18950;DHT22;9608;49.288;8.130;2023-07-24T04:15:13;19.00;99.90
18950;DHT22;9608;49.288;8.130;2023-07-24T04:17:41;19.10;99.90
18950;DHT22;9608;49.288;8.130;2023-07-24T04:20:09;19.10;99.90
18950;DHT22;9608;49.288;8.130;2023-07-24T04:22:35;19.20;99.90
18950;DHT22;9608;49.288;8.130;2023-07-24T04:25:02;19.10;99.90
18950;DHT22;9608;49.288;8.130;2023-07-24T04:27:29;19.00;99.90
18950;DHT22;9608;49.288;8.130;2023-07-24T04:29:56;18.90;99.90
18950;DHT22;9608;49.288;8.130;2023-07-24T04:32:23;19.00;99.90
18950;DHT22;9608;49.288;8.130;2023-07-24T04:34:51;19.00;99.90
18950;DHT22;9608;49.288;8.130;2023-07-24T04:37:17;19.00;99.90
18950;DHT22;9608;49.288;8.130;2023-07-24T04:39:44;19.00;99.90
18950;DHT22;9608;49.288;8.130;2023-07-24T04:42:11;19.10;99.90
18950;DHT22;9608;49.288;8.130;2023-07-24T04:44:37;19.10;99.90
18950;DHT22;9608;49.288;8.130;2023-07-24T04:47:04;19.20;99.90
18950;DHT22;9608;49.288;8.130;2023-07-24T04:49:31;19.20;99.90
18950;DHT22;9608;49.288;8.130;2023-07-24T04:51:59;19.30;99.90
18950;DHT22;9608;49.288;8.130;2023-07-24T04:54:26;19.30;99.90
18950;DHT22;9608;49.288;8.130;2023-07-24T04:56:53;19.30;99.90
18950;DHT22;9608;49.288;8.130;2023-07-24T04:59:19;19.30;99.90
18950;DHT22;9608;49.288;8.130;2023-07-24T05:01:46;19.30;99.90
18950;DHT22;9608;49.288;8.130;2023-07-24T05:04:13;19.20;99.90
18950;DHT22;9608;49.288;8.130;2023-07-24T05:06:39;19.20;99.90
18950;DHT22;9608;49.288;8.130;2023-07-24T05:09:08;19.20;99.90
18950;DHT22;9608;49.288;8.130;2023-07-24T05:11:34;19.20;99.90
18950;DHT22;9608;49.288;8.130;2023-07-24T05:14:01;19.10;99.90
18950;DHT22;9608;49.288;8.130;2023-07-24T05:16:28;19.10;99.90
18950;DHT22;9608;49.288;8.130;2023-07-24T05:18:54;19.10;99.90
18950;DHT22;9608;49.288;8.130;2023-07-24T05:21:21;19.00;99.90
18950;DHT22;9608;49.288;8.130;2023-07-24T05:23:48;18.90;99.90
18950;DHT22;9608;49.288;8.130;2023-07-24T05:26:16;19.00;99.90
18950;DHT22;9608;49.288;8.130;2023-07-24T05:28:42;19.00;99.90
18950;DHT22;9608;49.288;8.130;2023-07-24T05:31:09;19.20;99.90
18950;DHT22;9608;49.288;8.130;2023-07-24T05:33:36;19.50;99.90
18950;DHT22;9608;49.288;8.130;2023-07-24T05:36:03;19.60;99.90
18950;DHT22;9608;49.288;8.130;2023-07-24T05:38:31;19.80;99.90
18950;DHT22;9608;49.288;8.130;2023-07-24T05:40:58;19.90;99.90
18950;DHT22;9608;49.288;8.130;2023-07-24T05:43:27;19.90;99.90
18950;DHT22;9608;49.288;8.130;2023-07-24T05:45:55;19.90;99.90
18950;DHT22;9608;49.288;8.130;2023-07-24T05:48:23;20.00;99.90
18950;DHT22;9608;49.288;8.130;2023-07-24T05:50:50;20.10;99.90
18950;DHT22;9608;49.288;8.130;2023-07-24T05:53:17;20.00;99.90
18950;DHT22;9608;49.288;8.130;2023-07-24T05:55:43;20.10;99.90
18950;DHT22;9608;49.288;8.130;2023-07-24T05:58:10;20.10;99.90
18950;DHT22;9608;49.288;8.130;2023-07-24T06:00:38;20.10;99.90
18950;DHT22;9608;49.288;8.130;2023-07-24T06:03:05;20.10;99.90
18950;DHT22;9608;49.288;8.130;2023-07-24T06:05:32;20.00;99.90
18950;DHT22;9608;49.288;8.130;2023-07-24T06:07:58;20.10;99.90
18950;DHT22;9608;49.288;8.130;2023-07-24T06:10:25;20.30;99.90
18950;DHT22;9608;49.288;8.130;2023-07-24T06:12:52;20.40;99.90
18950;DHT22;9608;49.288;8.130;2023-07-24T06:15:19;20.50;99.90
18950;DHT22;9608;49.288;8.130;2023-07-24T06:17:47;20.70;99.90
18950;DHT22;9608;49.288;8.130;2023-07-24T06:20:14;21.00;99.90
18950;DHT22;9608;49.288;8.130;2023-07-24T06:22:40;21.30;99.90
18950;DHT22;9608;49.288;8.130;2023-07-24T06:25:07;21.60;99.90
18950;DHT22;9608;49.288;8.130;2023-07-24T06:27:34;21.80;99.90
18950;DHT22;9608;49.288;8.130;2023-07-24T06:30:01;21.80;99.90
18950;DHT22;9608;49.288;8.130;2023-07-24T06:32:28;21.80;99.90
18950;DHT22;9608;49.288;8.130;2023-07-24T06:34:56;21.90;99.90
18950;DHT22;9608;49.288;8.130;2023-07-24T06:37:23;22.20;99.90
18950;DHT22;9608;49.288;8.130;2023-07-24T06:39:49;22.40;99.90
18950;DHT22;9608;49.288;8.130;2023-07-24T06:42:16;22.50;99.90
18950;DHT22;9608;49.288;8.130;2023-07-24T06:44:43;22.70;99.90
18950;DHT22;9608;49.288;8.130;2023-07-24T06:47:09;23.00;99.90
18950;DHT22;9608;49.288;8.130;2023-07-24T06:49:36;23.20;99.90
18950;DHT22;9608;49.288;8.130;2023-07-24T06:52:05;23.50;99.90
18950;DHT22;9608;49.288;8.130;2023-07-24T06:54:31;23.60;99.90
18950;DHT22;9608;49.288;8.130;2023-07-24T06:56:58;23.80;99.90
18950;DHT22;9608;49.288;8.130;2023-07-24T06:59:25;23.90;99.90
18950;DHT22;9608;49.288;8.130;2023-07-24T07:01:51;23.90;99.90
18950;DHT22;9608;49.288;8.130;2023-07-24T07:04:18;23.90;99.90
18950;DHT22;9608;49.288;8.130;2023-07-24T07:06:45;24.00;99.90
18950;DHT22;9608;49.288;8.130;2023-07-24T07:09:13;24.10;99.90
18950;DHT22;9608;49.288;8.130;2023-07-24T07:11:39;24.30;99.90
18950;DHT22;9608;49.288;8.130;2023-07-24T07:14:08;24.30;99.90
18950;DHT22;9608;49.288;8.130;2023-07-24T07:16:35;24.40;99.90
18950;DHT22;9608;49.288;8.130;2023-07-24T07:19:02;24.40;99.90
18950;DHT22;9608;49.288;8.130;2023-07-24T07:21:28;24.70;99.90
18950;DHT22;9608;49.288;8.130;2023-07-24T07:23:55;24.80;99.90
18950;DHT22;9608;49.288;8.130;2023-07-24T07:26:23;24.60;99.90
18950;DHT22;9608;49.288;8.130;2023-07-24T07:28:50;24.60;99.90
18950;DHT22;9608;49.288;8.130;2023-07-24T07:31:17;24.40;99.90
18950;DHT22;9608;49.288;8.130;2023-07-24T07:33:44;24.30;99.90
18950;DHT22;9608;49.288;8.130;2023-07-24T07:36:10;24.20;99.90
18950;DHT22;9608;49.288;8.130;2023-07-24T07:38:37;24.20;99.90
18950;DHT22;9608;49.288;8.130;2023-07-24T07:41:05;24.00;99.90
18950;DHT22;9608;49.288;8.130;2023-07-24T07:43:33;23.80;99.90
18950;DHT22;9608;49.288;8.130;2023-07-24T07:46:01;23.80;99.90
18950;DHT22;9608;49.288;8.130;2023-07-24T07:48:28;23.80;99.90
18950;DHT22;9608;49.288;8.130;2023-07-24T07:50:55;23.60;99.90
18950;DHT22;9608;49.288;8.130;2023-07-24T07:53:21;23.60;99.90
18950;DHT22;9608;49.288;8.130;2023-07-24T07:55:55;23.60;99.90
18950;DHT22;9608;49.288;8.130;2023-07-24T07:58:22;23.60;99.90
18950;DHT22;9608;49.288;8.130;2023-07-24T08:00:50;23.60;99.90
18950;DHT22;9608;49.288;8.130;2023-07-24T08:03:17;23.70;99.90
18950;DHT22;9608;49.288;8.130;2023-07-24T08:05:43;24.10;99.90
18950;DHT22;9608;49.288;8.130;2023-07-24T08:08:10;24.30;99.90
18950;DHT22;9608;49.288;8.130;2023-07-24T08:10:37;24.20;99.90
18950;DHT22;9608;49.288;8.130;2023-07-24T08:13:04;24.10;99.90
18950;DHT22;9608;49.288;8.130;2023-07-24T08:15:34;24.30;99.90
18950;DHT22;9608;49.288;8.130;2023-07-24T08:18:02;24.30;99.90
18950;DHT22;9608;49.288;8.130;2023-07-24T08:20:29;24.60;99.90
18950;DHT22;9608;49.288;8.130;2023-07-24T08:22:56;24.60;99.90
18950;DHT22;9608;49.288;8.130;2023-07-24T08:25:23;24.70;99.90
18950;DHT22;9608;49.288;8.130;2023-07-24T08:27:50;24.50;99.90
18950;DHT22;9608;49.288;8.130;2023-07-24T08:30:17;24.40;99.90
18950;DHT22;9608;49.288;8.130;2023-07-24T08:32:44;24.60;99.90
18950;DHT22;9608;49.288;8.130;2023-07-24T08:35:12;24.90;99.90
18950;DHT22;9608;49.288;8.130;2023-07-24T08:37:42;25.20;99.90
18950;DHT22;9608;49.288;8.130;2023-07-24T08:40:10;25.40;99.90
18950;DHT22;9608;49.288;8.130;2023-07-24T08:42:38;25.20;99.90
18950;DHT22;9608;49.288;8.130;2023-07-24T08:45:08;25.00;99.90
18950;DHT22;9608;49.288;8.130;2023-07-24T08:47:35;24.90;99.90
18950;DHT22;9608;49.288;8.130;2023-07-24T08:50:02;24.80;99.90
18950;DHT22;9608;49.288;8.130;2023-07-24T08:52:31;24.90;99.90
18950;DHT22;9608;49.288;8.130;2023-07-24T08:54:58;24.80;99.90
18950;DHT22;9608;49.288;8.130;2023-07-24T08:57:25;24.80;99.90
18950;DHT22;9608;49.288;8.130;2023-07-24T08:59:52;24.90;99.90
18950;DHT22;9608;49.288;8.130;2023-07-24T09:02:19;25.00;99.90
18950;DHT22;9608;49.288;8.130;2023-07-24T09:04:45;25.30;99.90
18950;DHT22;9608;49.288;8.130;2023-07-24T09:07:13;25.80;99.90
18950;DHT22;9608;49.288;8.130;2023-07-24T09:09:41;26.20;99.90
18950;DHT22;9608;49.288;8.130;2023-07-24T09:12:08;26.30;99.90
18950;DHT22;9608;49.288;8.130;2023-07-24T09:14:41;26.20;99.90
18950;DHT22;9608;49.288;8.130;2023-07-24T09:17:11;25.80;99.90
18950;DHT22;9608;49.288;8.130;2023-07-24T09:19:38;25.80;99.90
18950;DHT22;9608;49.288;8.130;2023-07-24T09:22:09;25.90;99.90
18950;DHT22;9608;49.288;8.130;2023-07-24T09:24:36;25.80;99.90
18950;DHT22;9608;49.288;8.130;2023-07-24T09:27:06;26.00;99.90
18950;DHT22;9608;49.288;8.130;2023-07-24T09:29:33;26.40;99.90
18950;DHT22;9608;49.288;8.130;2023-07-24T09:32:00;26.50;99.90
18950;DHT22;9608;49.288;8.130;2023-07-24T09:34:27;26.30;99.90
18950;DHT22;9608;49.288;8.130;2023-07-24T09:36:54;26.10;99.90
18950;DHT22;9608;49.288;8.130;2023-07-24T09:39:23;26.10;99.90
18950;DHT22;9608;49.288;8.130;2023-07-24T09:41:50;26.00;99.90
18950;DHT22;9608;49.288;8.130;2023-07-24T09:44:19;25.40;99.90
18950;DHT22;9608;49.288;8.130;2023-07-24T09:46:46;25.30;99.90
18950;DHT22;9608;49.288;8.130;2023-07-24T09:49:13;25.40;99.90
18950;DHT22;9608;49.288;8.130;2023-07-24T09:51:43;25.50;99.90
18950;DHT22;9608;49.288;8.130;2023-07-24T09:54:15;25.40;99.90
18950;DHT22;9608;49.288;8.130;2023-07-24T09:56:44;25.20;99.90
18950;DHT22;9608;49.288;8.130;2023-07-24T09:59:13;24.90;99.90
18950;DHT22;9608;49.288;8.130;2023-07-24T10:01:41;24.90;99.90
18950;DHT22;9608;49.288;8.130;2023-07-24T10:04:09;25.00;99.90
18950;DHT22;9608;49.288;8.130;2023-07-24T10:06:37;24.90;99.90
18950;DHT22;9608;49.288;8.130;2023-07-24T10:09:04;24.70;99.90
18950;DHT22;9608;49.288;8.130;2023-07-24T10:11:32;24.70;99.90
18950;DHT22;9608;49.288;8.130;2023-07-24T10:13:59;24.70;99.90
18950;DHT22;9608;49.288;8.130;2023-07-24T10:16:26;24.70;99.90
18950;DHT22;9608;49.288;8.130;2023-07-24T10:18:54;24.80;99.90
18950;DHT22;9608;49.288;8.130;2023-07-24T10:21:27;24.90;99.90
18950;DHT22;9608;49.288;8.130;2023-07-24T10:23:53;25.30;99.90
18950;DHT22;9608;49.288;8.130;2023-07-24T10:26:24;25.50;99.90
18950;DHT22;9608;49.288;8.130;2023-07-24T10:28:51;25.70;99.90
18950;DHT22;9608;49.288;8.130;2023-07-24T10:31:22;25.90;99.90
18950;DHT22;9608;49.288;8.130;2023-07-24T10:33:51;25.90;99.90
18950;DHT22;9608;49.288;8.130;2023-07-24T10:36:20;26.00;99.90
18950;DHT22;9608;49.288;8.130;2023-07-24T10:38:52;26.20;99.90
18950;DHT22;9608;49.288;8.130;2023-07-24T10:41:19;26.40;99.90
18950;DHT22;9608;49.288;8.130;2023-07-24T10:43:47;26.40;99.90
18950;DHT22;9608;49.288;8.130;2023-07-24T10:46:15;26.30;99.90
18950;DHT22;9608;49.288;8.130;2023-07-24T10:48:43;26.30;99.90
18950;DHT22;9608;49.288;8.130;2023-07-24T10:51:10;26.20;99.90
18950;DHT22;9608;49.288;8.130;2023-07-24T10:53:44;26.10;99.90
18950;DHT22;9608;49.288;8.130;2023-07-24T10:56:11;26.30;99.90
18950;DHT22;9608;49.288;8.130;2023-07-24T10:58:38;26.50;99.90
18950;DHT22;9608;49.288;8.130;2023-07-24T11:01:05;26.50;99.90
18950;DHT22;9608;49.288;8.130;2023-07-24T11:03:35;26.30;99.90
18950;DHT22;9608;49.288;8.130;2023-07-24T11:06:03;26.30;99.90
18950;DHT22;9608;49.288;8.130;2023-07-24T11:08:30;26.20;99.90
18950;DHT22;9608;49.288;8.130;2023-07-24T11:10:59;26.30;99.90
18950;DHT22;9608;49.288;8.130;2023-07-24T11:13:28;26.30;99.90
18950;DHT22;9608;49.288;8.130;2023-07-24T11:15:55;26.40;99.90
18950;DHT22;9608;49.288;8.130;2023-07-24T11:18:22;26.00;99.90
18950;DHT22;9608;49.288;8.130;2023-07-24T11:20:53;26.10;99.90
18950;DHT22;9608;49.288;8.130;2023-07-24T11:23:21;26.20;99.90
18950;DHT22;9608;49.288;8.130;2023-07-24T11:25:50;26.10;99.90
18950;DHT22;9608;49.288;8.130;2023-07-24T11:28:19;25.80;99.90
18950;DHT22;9608;49.288;8.130;2023-07-24T11:30:46;25.70;99.90
18950;DHT22;9608;49.288;8.130;2023-07-24T11:33:15;25.80;99.90
18950;DHT22;9608;49.288;8.130;2023-07-24T11:35:42;26.10;99.90
18950;DHT22;9608;49.288;8.130;2023-07-24T11:38:10;26.50;99.90
18950;DHT22;9608;49.288;8.130;2023-07-24T11:40:38;26.90;99.90
18950;DHT22;9608;49.288;8.130;2023-07-24T11:43:05;27.30;99.90
18950;DHT22;9608;49.288;8.130;2023-07-24T11:45:41;27.70;99.90
18950;DHT22;9608;49.288;8.130;2023-07-24T11:48:09;27.90;99.90
18950;DHT22;9608;49.288;8.130;2023-07-24T11:50:42;28.30;99.90
18950;DHT22;9608;49.288;8.130;2023-07-24T11:53:19;28.50;99.90
18950;DHT22;9608;49.288;8.130;2023-07-24T11:55:45;28.30;99.90
18950;DHT22;9608;49.288;8.130;2023-07-24T11:58:14;28.20;99.90
18950;DHT22;9608;49.288;8.130;2023-07-24T12:00:43;27.90;99.90
18950;DHT22;9608;49.288;8.130;2023-07-24T12:03:10;27.30;99.90
18950;DHT22;9608;49.288;8.130;2023-07-24T12:05:40;26.50;99.90
18950;DHT22;9608;49.288;8.130;2023-07-24T12:08:07;26.40;99.90
18950;DHT22;9608;49.288;8.130;2023-07-24T12:10:36;26.20;99.90
18950;DHT22;9608;49.288;8.130;2023-07-24T12:13:04;26.10;99.90
18950;DHT22;9608;49.288;8.130;2023-07-24T12:15:31;26.30;99.90
18950;DHT22;9608;49.288;8.130;2023-07-24T12:17:59;26.40;99.90
18950;DHT22;9608;49.288;8.130;2023-07-24T12:20:27;26.30;99.90
18950;DHT22;9608;49.288;8.130;2023-07-24T12:22:53;26.40;99.90
18950;DHT22;9608;49.288;8.130;2023-07-24T12:25:20;26.50;99.90
18950;DHT22;9608;49.288;8.130;2023-07-24T12:27:48;26.40;99.90
18950;DHT22;9608;49.288;8.130;2023-07-24T12:30:15;26.50;99.90
18950;DHT22;9608;49.288;8.130;2023-07-24T12:32:41;27.00;99.90
18950;DHT22;9608;49.288;8.130;2023-07-24T12:35:10;27.30;99.90
18950;DHT22;9608;49.288;8.130;2023-07-24T12:37:37;27.10;99.90
18950;DHT22;9608;49.288;8.130;2023-07-24T12:40:06;26.90;99.90
18950;DHT22;9608;49.288;8.130;2023-07-24T12:42:33;26.80;99.90
18950;DHT22;9608;49.288;8.130;2023-07-24T12:44:59;26.80;99.90
18950;DHT22;9608;49.288;8.130;2023-07-24T12:47:28;26.80;99.90
18950;DHT22;9608;49.288;8.130;2023-07-24T12:49:55;26.70;99.90
18950;DHT22;9608;49.288;8.130;2023-07-24T12:52:24;26.80;99.90
18950;DHT22;9608;49.288;8.130;2023-07-24T12:54:51;26.60;99.90
18950;DHT22;9608;49.288;8.130;2023-07-24T12:57:18;27.00;99.90
18950;DHT22;9608;49.288;8.130;2023-07-24T12:59:44;27.10;99.90
18950;DHT22;9608;49.288;8.130;2023-07-24T13:02:11;27.40;99.90
18950;DHT22;9608;49.288;8.130;2023-07-24T13:04:39;27.60;99.90
18950;DHT22;9608;49.288;8.130;2023-07-24T13:07:06;27.70;99.90
18950;DHT22;9608;49.288;8.130;2023-07-24T13:09:34;28.10;99.90
18950;DHT22;9608;49.288;8.130;2023-07-24T13:12:00;28.50;99.90
18950;DHT22;9608;49.288;8.130;2023-07-24T13:14:27;28.90;99.90
18950;DHT22;9608;49.288;8.130;2023-07-24T13:16:54;29.10;99.90
18950;DHT22;9608;49.288;8.130;2023-07-24T13:19:21;28.50;99.90
18950;DHT22;9608;49.288;8.130;2023-07-24T13:21:47;27.90;99.90
18950;DHT22;9608;49.288;8.130;2023-07-24T13:24:14;27.80;99.90
18950;DHT22;9608;49.288;8.130;2023-07-24T13:26:42;27.60;99.90
18950;DHT22;9608;49.288;8.130;2023-07-24T13:29:09;27.20;99.90
18950;DHT22;9608;49.288;8.130;2023-07-24T13:31:36;26.70;99.90
18950;DHT22;9608;49.288;8.130;2023-07-24T13:34:02;26.30;99.90
18950;DHT22;9608;49.288;8.130;2023-07-24T13:36:29;26.00;99.90
18950;DHT22;9608;49.288;8.130;2023-07-24T13:38:56;26.00;99.90
18950;DHT22;9608;49.288;8.130;2023-07-24T13:41:22;26.20;99.90
18950;DHT22;9608;49.288;8.130;2023-07-24T13:43:50;26.20;99.90
18950;DHT22;9608;49.288;8.130;2023-07-24T13:46:17;26.00;99.90
18950;DHT22;9608;49.288;8.130;2023-07-24T13:48:44;25.90;99.90
18950;DHT22;9608;49.288;8.130;2023-07-24T13:51:11;25.90;99.90
18950;DHT22;9608;49.288;8.130;2023-07-24T13:53:38;25.60;99.90
18950;DHT22;9608;49.288;8.130;2023-07-24T13:56:05;25.30;99.90
18950;DHT22;9608;49.288;8.130;2023-07-24T13:58:31;24.80;99.90
18950;DHT22;9608;49.288;8.130;2023-07-24T14:00:59;24.00;99.90
18950;DHT22;9608;49.288;8.130;2023-07-24T14:03:26;22.60;99.90
18950;DHT22;9608;49.288;8.130;2023-07-24T14:05:55;21.60;99.90
18950;DHT22;9608;49.288;8.130;2023-07-24T14:08:22;20.90;99.90
18950;DHT22;9608;49.288;8.130;2023-07-24T14:10:49;20.40;99.90
18950;DHT22;9608;49.288;8.130;2023-07-24T14:13:16;20.00;99.90
18950;DHT22;9608;49.288;8.130;2023-07-24T14:15:43;19.80;99.90
18950;DHT22;9608;49.288;8.130;2023-07-24T14:18:11;19.90;99.90
18950;DHT22;9608;49.288;8.130;2023-07-24T14:20:38;19.90;99.90
18950;DHT22;9608;49.288;8.130;2023-07-24T14:23:06;20.10;99.90
18950;DHT22;9608;49.288;8.130;2023-07-24T14:25:33;20.20;99.90
18950;DHT22;9608;49.288;8.130;2023-07-24T14:27:59;20.40;99.90
18950;DHT22;9608;49.288;8.130;2023-07-24T14:30:26;20.60;99.90
18950;DHT22;9608;49.288;8.130;2023-07-24T14:32:53;20.80;99.90
18950;DHT22;9608;49.288;8.130;2023-07-24T14:35:21;21.00;99.90
18950;DHT22;9608;49.288;8.130;2023-07-24T14:37:47;21.00;99.90
18950;DHT22;9608;49.288;8.130;2023-07-24T14:40:14;21.00;99.90
18950;DHT22;9608;49.288;8.130;2023-07-24T14:42:41;20.90;99.90
18950;DHT22;9608;49.288;8.130;2023-07-24T14:45:08;20.80;99.90
18950;DHT22;9608;49.288;8.130;2023-07-24T14:47:35;20.80;99.90
18950;DHT22;9608;49.288;8.130;2023-07-24T14:50:02;20.70;99.90
18950;DHT22;9608;49.288;8.130;2023-07-24T14:52:30;20.90;99.90
18950;DHT22;9608;49.288;8.130;2023-07-24T14:54:57;21.10;99.90
18950;DHT22;9608;49.288;8.130;2023-07-24T14:57:24;21.30;99.90
18950;DHT22;9608;49.288;8.130;2023-07-24T14:59:51;21.50;99.90
18950;DHT22;9608;49.288;8.130;2023-07-24T15:02:17;21.60;99.90
18950;DHT22;9608;49.288;8.130;2023-07-24T15:04:44;21.70;99.90
18950;DHT22;9608;49.288;8.130;2023-07-24T15:07:11;21.80;99.90
18950;DHT22;9608;49.288;8.130;2023-07-24T15:09:39;21.90;99.90
18950;DHT22;9608;49.288;8.130;2023-07-24T15:12:06;22.20;99.90
18950;DHT22;9608;49.288;8.130;2023-07-24T15:14:32;22.40;99.90
18950;DHT22;9608;49.288;8.130;2023-07-24T15:16:59;22.50;99.90
18950;DHT22;9608;49.288;8.130;2023-07-24T15:19:26;22.60;99.90
18950;DHT22;9608;49.288;8.130;2023-07-24T15:21:52;22.80;99.90
18950;DHT22;9608;49.288;8.130;2023-07-24T15:24:19;22.90;99.90
18950;DHT22;9608;49.288;8.130;2023-07-24T15:26:47;22.90;99.90
18950;DHT22;9608;49.288;8.130;2023-07-24T15:29:14;22.90;99.90
18950;DHT22;9608;49.288;8.130;2023-07-24T15:31:42;22.90;99.90
18950;DHT22;9608;49.288;8.130;2023-07-24T15:34:08;22.90;99.90
18950;DHT22;9608;49.288;8.130;2023-07-24T15:36:35;23.00;99.90
18950;DHT22;9608;49.288;8.130;2023-07-24T15:39:03;22.90;99.90
18950;DHT22;9608;49.288;8.130;2023-07-24T15:41:29;22.90;99.90
18950;DHT22;9608;49.288;8.130;2023-07-24T15:43:58;23.20;99.90
18950;DHT22;9608;49.288;8.130;2023-07-24T15:46:25;23.20;99.90